Pagrindinis puslapis
METAR-TAF:

METAR-TAF

Oro uostai :

Čijampino oro uostas

Roma Čijampino, Italija

platuma: 41-47N, ilguma: 012-35E, Aukštis: 129 m

Dabartinis oras

Ataskaita buvo paskelbta 25 minutes, ne 19:20 UTC
Vėjas 4 kt iš Rytų/Pietryčių
Temperatūra 8°C
Drėgmė 93%
Slėgis 1020 hPa
Matomumas 10 km arba daugiau
Mažai debesys ne aukštis 2500 ft
Su prošvaistėmis ne aukštis 5000 ft

METAR: LIRA 181920Z 12004KT 9999 FEW025 BKN050 08/07 Q1020

Laikas: 20:45 (19:45 UTC)

Prognozė

Ataskaita buvo paskelbta 2 valandos ir 45 minutes, ne 17:00 UTC
Prognozė galioja nuo 18 metu 18 UTC su 19 metu 18 UTC
Vėjas 5 kt nuo kintamojo kryptimis
Matomumas 10 km arba daugiau
Išsisklaidę debesys ne aukštis 2500 ft
Tapsmas
nuo 19 metu 09 UTC su 19 metu 11 UTC
Vėjas 10 kt iš Pietų/Pietryčių

TAF: LIRA 181700Z 1818/1918 VRB05KT 9999 SCT025 BECMG 1909/1911 15010KT

Orai ataskaitas ir orų prognozės (METAR, TAF).

turimą stotys yra geltonos ir raudonos taškus žemėlapyje.

Perkelti pele per norėdami pamatyti stoties vardą.

Tada spustelėkite, norėdami matyti oro stebėjimo ir prognozės.

Norėdami pakeisti žemėlapį: spustelėkite ant žalios mygtukų su juodo kryžiaus žemyn,; žalią mygtuką su brūkšneliu, jei norite nutolinti; arba žalių rodyklių gretimoms žemėlapius.


METAR-TAF: